Terminal Aerodrome Forecast
Issued by NWS Wakefield, VA

Home | Current Version | Previous Version | Text Only | Print | Product List | Glossary On
Versions: 1 2 3 4 5 6 7 8 9 10 11 12 13 14 15 16 17 18
000
FTUS41 KAKQ 010500
TAFSBY
TAF
KSBY 010532Z 0106/0206 20006KT P6SM VCSH SCT025 BKN050
      TEMPO 0106/0107 6SM -SHRA BR BKN025
     FM010700 21005KT P6SM SCT050 BKN120
     FM011400 23010KT P6SM SCT040 BKN120
     FM020000 20005KT P6SM SCT120=

USA.gov is the U.S. government's official web portal to all federal, state and local government web resources and services.